Time;durP1;ratioP1;P1;durP2;ratioP2;P2;SDS_P1;SDS_P2;PMS_P1;PMS_P2;Temp;Humidity;BMP_temperature;BMP_pressure;BME280_temperature;BME280_humidity;BME280_pressure;Samples;Min_cycle;Max_cycle;Signal;HPM_P1;HPM_P2
2022/08/06 00:01:07;;;;;;;4.03;0.98;;;11.60;99.90;;;;;;5043353;28;20025;-88
2022/08/06 00:03:32;;;;;;;6.00;1.10;;;11.70;99.90;;;;;;5043047;28;20024;-88
2022/08/06 00:05:58;;;;;;;6.07;1.13;;;11.70;99.90;;;;;;5046324;28;20509;-88
2022/08/06 00:08:23;;;;;;;5.95;0.90;;;11.70;99.90;;;;;;5047525;28;20069;-88
2022/08/06 00:10:49;;;;;;;4.78;0.82;;;11.70;99.90;;;;;;5047808;28;20025;-88
2022/08/06 00:13:14;;;;;;;4.90;0.90;;;11.60;99.90;;;;;;5044227;28;20049;-88
2022/08/06 00:15:40;;;;;;;5.43;1.05;;;11.60;99.90;;;;;;5045547;28;20492;-88
2022/08/06 00:18:06;;;;;;;5.78;1.20;;;11.50;99.90;;;;;;5044919;28;20033;-88
2022/08/06 00:20:32;;;;;;;6.65;1.10;;;11.50;99.90;;;;;;5047533;28;20028;-88
2022/08/06 00:22:58;;;;;;;9.38;1.63;;;11.40;99.90;;;;;;5045089;28;20045;-88
2022/08/06 00:25:24;;;;;;;5.07;1.15;;;11.30;99.90;;;;;;5046011;28;20512;-88
2022/08/06 00:27:50;;;;;;;8.43;1.02;;;11.30;99.90;;;;;;5046663;28;20017;-87
2022/08/06 00:30:15;;;;;;;5.47;1.25;;;11.20;99.90;;;;;;5041166;28;20034;-88
2022/08/06 00:32:41;;;;;;;4.80;0.90;;;11.20;99.90;;;;;;5044944;28;20025;-88
2022/08/06 00:35:06;;;;;;;5.13;1.25;;;11.20;99.90;;;;;;5043480;28;20469;-88
2022/08/06 00:37:32;;;;;;;3.20;0.98;;;11.20;99.90;;;;;;5046421;28;20024;-88
2022/08/06 00:40:01;;;;;;;10.32;1.60;;;11.20;99.90;;;;;;5045283;28;20063;-88
2022/08/06 00:42:27;;;;;;;6.93;1.30;;;11.20;99.90;;;;;;5047940;28;20026;-89
2022/08/06 00:44:53;;;;;;;4.97;1.30;;;11.10;99.90;;;;;;5049759;28;20057;-88
2022/08/06 00:47:19;;;;;;;6.65;1.30;;;11.10;99.90;;;;;;5046456;28;20167;-88
2022/08/06 00:49:44;;;;;;;3.08;1.00;;;11.10;99.90;;;;;;5047789;28;20037;-89
2022/08/06 00:52:10;;;;;;;5.63;1.13;;;11.10;99.90;;;;;;5047407;28;20071;-89
2022/08/06 00:54:35;;;;;;;8.90;1.98;;;11.00;99.90;;;;;;5047883;28;20021;-88
2022/08/06 00:57:02;;;;;;;8.10;1.40;;;11.00;99.90;;;;;;5049117;28;20493;-89
2022/08/06 00:59:27;;;;;;;6.78;1.55;;;11.00;99.90;;;;;;5047499;28;20025;-88
2022/08/06 01:01:53;;;;;;;6.47;1.40;;;11.00;99.90;;;;;;5048494;28;20017;-89
2022/08/06 01:04:18;;;;;;;5.20;1.65;;;11.00;99.90;;;;;;5048436;28;20042;-88
2022/08/06 01:06:44;;;;;;;3.80;1.27;;;11.10;99.90;;;;;;5046301;28;20025;-89
2022/08/06 01:09:10;;;;;;;6.28;1.90;;;11.00;99.90;;;;;;5048213;28;20025;-89
2022/08/06 01:11:36;;;;;;;5.45;1.25;;;11.00;99.90;;;;;;5047931;28;20024;-88
2022/08/06 01:14:02;;;;;;;7.32;1.77;;;11.10;99.90;;;;;;5048246;28;20060;-88
2022/08/06 01:16:49;;;;;;;5.38;1.50;;;11.10;99.90;;;;;;5044756;28;20078;-88
2022/08/06 01:19:36;;;;;;;9.45;1.65;;;11.10;99.90;;;;;;5046842;28;20025;-89
2022/08/06 01:22:34;;;;;;;7.72;2.00;;;11.10;99.90;;;;;;5047315;28;20087;-87
2022/08/06 01:25:28;;;;;;;8.25;2.05;;;11.10;99.90;;;;;;5047085;28;20036;-88
2022/08/06 01:28:03;;;;;;;8.48;1.80;;;11.10;99.90;;;;;;5048714;28;20025;-88
2022/08/06 01:30:33;;;;;;;6.60;2.10;;;11.10;99.90;;;;;;5048398;28;20033;-88
2022/08/06 01:33:05;;;;;;;6.35;1.85;;;11.00;99.90;;;;;;5045635;28;20067;-88
2022/08/06 01:35:36;;;;;;;6.43;1.73;;;11.10;99.90;;;;;;5047766;28;20021;-88
2022/08/06 01:38:22;;;;;;;7.93;1.77;;;11.00;99.90;;;;;;5038481;28;20025;-88
2022/08/06 01:40:50;;;;;;;5.18;1.67;;;11.00;99.90;;;;;;5042348;28;20393;-89
2022/08/06 01:43:19;;;;;;;6.57;2.10;;;11.00;99.90;;;;;;5047352;28;20370;-87
2022/08/06 01:45:46;;;;;;;10.23;3.42;;;11.00;99.90;;;;;;5046944;28;20075;-88
2022/08/06 01:48:17;;;;;;;8.07;2.15;;;11.00;99.90;;;;;;5048186;28;20111;-88
2022/08/06 01:50:47;;;;;;;9.23;2.63;;;10.90;99.90;;;;;;5048046;28;20037;-88
2022/08/06 01:53:17;;;;;;;6.22;2.33;;;10.90;99.90;;;;;;5042524;28;20046;-88
2022/08/06 01:55:47;;;;;;;9.05;2.55;;;10.90;99.90;;;;;;5044530;28;20029;-89
2022/08/06 01:58:16;;;;;;;8.73;2.67;;;10.90;99.90;;;;;;5039438;28;20479;-88
2022/08/06 02:00:46;;;;;;;10.02;2.90;;;10.90;99.90;;;;;;5046421;28;20025;-87
2022/08/06 02:03:18;;;;;;;6.80;2.70;;;10.90;99.90;;;;;;5047667;28;20123;-88
2022/08/06 02:05:44;;;;;;;;;;;10.90;99.90;;;;;;5041521;28;20026;-87
2022/08/06 02:08:13;;;;;;;8.25;1.92;;;10.90;99.90;;;;;;5048773;28;19908;-88
2022/08/06 02:10:40;;;;;;;10.70;2.50;;;10.80;99.90;;;;;;5047405;28;20021;-88
2022/08/06 02:13:09;;;;;;;8.85;2.42;;;10.90;99.90;;;;;;5041842;28;20028;-88
2022/08/06 02:15:37;;;;;;;11.50;2.88;;;10.80;99.90;;;;;;5047489;28;20521;-87
2022/08/06 02:18:05;;;;;;;9.02;2.38;;;10.80;99.90;;;;;;5044800;28;20021;-87
2022/08/06 02:20:43;;;;;;;7.88;2.63;;;10.80;99.90;;;;;;5047865;28;20043;-87
2022/08/06 02:23:14;;;;;;;7.40;2.55;;;10.80;99.90;;;;;;5049872;28;20040;-87
2022/08/06 02:25:41;;;;;;;11.05;3.33;;;10.80;99.90;;;;;;5048691;28;20029;-88
2022/08/06 02:28:10;;;;;;;7.68;2.45;;;10.80;99.90;;;;;;5043470;28;20037;-87
2022/08/06 02:30:42;;;;;;;6.82;2.50;;;10.80;99.90;;;;;;5042905;28;20039;-86
2022/08/06 02:33:09;;;;;;;8.00;3.08;;;10.80;99.90;;;;;;5044691;28;20505;-86
2022/08/06 02:35:49;;;;;;;7.70;2.83;;;10.80;99.90;;;;;;5045395;28;20523;-86
2022/08/06 02:38:36;;;;;;;5.20;2.35;;;10.70;99.90;;;;;;5047804;28;20022;-86
2022/08/06 02:41:18;;;;;;;7.82;1.80;;;10.70;99.90;;;;;;5045315;28;20021;-87
2022/08/06 02:43:51;;;;;;;9.27;2.60;;;10.60;99.90;;;;;;5043162;28;20118;-88
2022/08/06 02:46:26;;;;;;;7.90;2.45;;;10.60;99.90;;;;;;5048594;28;20504;-88
2022/08/06 02:48:59;;;;;;;9.32;2.53;;;10.50;99.90;;;;;;5044530;28;20035;-88
2022/08/06 02:51:36;;;;;;;6.85;2.38;;;10.50;99.90;;;;;;5045468;28;20421;-89
2022/08/06 02:54:17;;;;;;;10.25;2.83;;;10.50;99.90;;;;;;5046971;28;20416;-88
2022/08/06 02:56:45;;;;;;;9.95;2.67;;;10.50;99.90;;;;;;5041585;28;20028;-87
2022/08/06 02:59:15;;;;;;;10.75;2.72;;;10.40;99.90;;;;;;5046829;28;20040;-88
2022/08/06 03:01:48;;;;;;;15.63;2.35;;;10.50;99.90;;;;;;5041831;28;20033;-87
2022/08/06 03:04:16;;;;;;;19.60;2.92;;;10.50;99.90;;;;;;5038973;28;20116;-87
2022/08/06 03:06:44;;;;;;;8.95;2.88;;;10.50;99.90;;;;;;5045573;28;20029;-87
2022/08/06 03:09:12;;;;;;;8.20;3.00;;;10.40;99.90;;;;;;5048268;28;20021;-87
2022/08/06 03:11:40;;;;;;;9.40;2.90;;;10.40;99.90;;;;;;5041003;28;20037;-88
2022/08/06 03:14:07;;;;;;;7.63;2.63;;;10.40;99.90;;;;;;5046995;28;20044;-87
2022/08/06 03:16:37;;;;;;;9.25;3.33;;;10.40;99.90;;;;;;5046385;28;20025;-87
2022/08/06 03:19:04;;;;;;;10.02;2.83;;;10.40;99.90;;;;;;5043096;28;20452;-85
2022/08/06 03:21:32;;;;;;;6.35;2.45;;;10.40;99.90;;;;;;5044882;28;20020;-88
2022/08/06 03:23:59;;;;;;;9.07;2.58;;;10.40;99.90;;;;;;5044485;28;20055;-85
2022/08/06 03:26:27;;;;;;;7.35;2.72;;;10.30;99.90;;;;;;5045909;28;20087;-87
2022/08/06 03:28:54;;;;;;;8.18;2.35;;;10.30;99.90;;;;;;5049209;28;20061;-85
2022/08/06 03:31:25;;;;;;;7.30;2.60;;;10.20;99.90;;;;;;5045691;28;21900;-87
2022/08/06 03:33:52;;;;;;;5.35;1.63;;;10.20;99.90;;;;;;5043434;28;20040;-88
2022/08/06 03:36:19;;;;;;;4.68;2.00;;;10.10;99.90;;;;;;5047607;28;20423;-87
2022/08/06 03:38:50;;;;;;;5.50;2.65;;;10.10;99.90;;;;;;5041544;28;20036;-87
2022/08/06 03:41:17;;;;;;;10.40;2.45;;;10.10;99.90;;;;;;5041796;28;20481;-87
2022/08/06 03:43:42;;;;;;;9.57;2.30;;;10.00;99.90;;;;;;5047394;28;20026;-88
2022/08/06 03:46:09;;;;;;;9.07;2.97;;;10.00;99.90;;;;;;5042893;28;20052;-86
2022/08/06 03:48:40;;;;;;;10.90;3.25;;;10.00;99.90;;;;;;5042346;28;20162;-87
2022/08/06 03:51:12;;;;;;;6.97;2.53;;;10.00;99.90;;;;;;5046035;28;20074;-87
2022/08/06 03:53:40;;;;;;;10.98;3.95;;;10.00;99.90;;;;;;5044515;28;20037;-86
2022/08/06 03:56:08;;;;;;;10.85;3.38;;;10.00;99.90;;;;;;5046522;28;20036;-86
2022/08/06 03:58:38;;;;;;;7.55;2.97;;;10.00;99.90;;;;;;5043139;28;20028;-85
2022/08/06 04:01:07;;;;;;;8.80;3.63;;;10.00;99.90;;;;;;5046023;28;20017;-86
2022/08/06 04:03:34;;;;;;;8.57;3.55;;;10.10;99.90;;;;;;5045374;28;20024;-86
2022/08/06 04:06:01;;;;;;;11.10;3.60;;;10.10;99.90;;;;;;5047154;28;21391;-85
2022/08/06 04:08:27;;;;;;;7.03;3.60;;;10.10;99.90;;;;;;5048245;28;20116;-86
2022/08/06 04:10:53;;;;;;;10.98;3.20;;;10.00;99.90;;;;;;5046759;28;20151;-85
2022/08/06 04:13:21;;;;;;;7.10;3.00;;;10.00;99.90;;;;;;5049862;28;20029;-85
2022/08/06 04:15:48;;;;;;;9.70;2.80;;;10.00;99.90;;;;;;5048347;28;20033;-86
2022/08/06 04:18:16;;;;;;;7.18;3.10;;;10.00;99.90;;;;;;5045830;28;20098;-86
2022/08/06 04:20:47;;;;;;;8.65;3.08;;;10.00;99.90;;;;;;5049284;28;20025;-86
2022/08/06 04:23:12;;;;;;;9.15;3.78;;;10.00;99.90;;;;;;5049026;28;20020;-87
2022/08/06 04:25:40;;;;;;;11.27;3.38;;;10.00;99.90;;;;;;5049836;28;20361;-86
2022/08/06 04:28:08;;;;;;;9.27;3.00;;;10.00;99.90;;;;;;5049130;28;20032;-86
2022/08/06 04:30:36;;;;;;;5.88;2.55;;;10.00;99.90;;;;;;5045451;28;20036;-85
2022/08/06 04:33:03;;;;;;;7.50;2.70;;;10.00;99.90;;;;;;5046927;28;20025;-86
2022/08/06 04:35:30;;;;;;;9.77;3.30;;;9.90;99.90;;;;;;5047683;28;20051;-85
2022/08/06 04:37:56;;;;;;;8.68;3.15;;;9.90;99.90;;;;;;5046139;28;20021;-85
2022/08/06 04:40:23;;;;;;;6.93;2.75;;;9.90;99.90;;;;;;5047216;28;20095;-86
2022/08/06 04:42:49;;;;;;;6.40;2.60;;;9.90;99.90;;;;;;5043538;28;20025;-86
2022/08/06 04:45:15;;;;;;;8.80;2.03;;;9.90;99.90;;;;;;5047206;28;20048;-86
2022/08/06 04:47:42;;;;;;;7.25;3.53;;;9.90;99.90;;;;;;5043656;28;20095;-85
2022/08/06 04:50:09;;;;;;;8.68;2.95;;;9.90;99.90;;;;;;5041805;28;20124;-86
2022/08/06 04:52:35;;;;;;;7.93;2.65;;;9.90;99.90;;;;;;5044248;28;20065;-86
2022/08/06 04:55:01;;;;;;;7.20;3.42;;;9.90;99.90;;;;;;5046850;28;20451;-86
2022/08/06 04:57:26;;;;;;;7.47;4.13;;;10.00;99.90;;;;;;5049127;28;20025;-86
2022/08/06 04:59:52;;;;;;;7.70;3.75;;;10.00;99.90;;;;;;5047326;28;20393;-86
2022/08/06 05:02:17;;;;;;;11.20;3.55;;;10.00;99.90;;;;;;5045279;28;20039;-86
2022/08/06 05:04:44;;;;;;;10.77;3.70;;;10.10;99.90;;;;;;5047946;28;20055;-85
2022/08/06 05:07:16;;;;;;;10.30;3.88;;;10.10;99.90;;;;;;5048762;28;20035;-85
2022/08/06 05:09:42;;;;;;;;;;;10.10;99.90;;;;;;5047565;28;20059;-86
2022/08/06 05:12:32;;;;;;;9.15;3.72;;;10.20;99.90;;;;;;5049160;28;19913;-86
2022/08/06 05:15:26;;;;;;;12.32;3.72;;;10.30;99.90;;;;;;5051124;28;20044;-85
2022/08/06 05:18:01;;;;;;;9.40;4.25;;;10.30;99.90;;;;;;5047194;28;20026;-84
2022/08/06 05:20:31;;;;;;;11.82;4.18;;;10.40;99.90;;;;;;5041931;28;20111;-85
2022/08/06 05:23:01;;;;;;;8.63;3.80;;;10.40;99.90;;;;;;5048314;28;20021;-85
2022/08/06 05:25:27;;;;;;;9.77;4.15;;;10.50;99.90;;;;;;5047014;28;20488;-85
2022/08/06 05:27:54;;;;;;;9.80;3.75;;;10.60;99.90;;;;;;5042569;28;20025;-85
2022/08/06 05:30:20;;;;;;;7.45;4.00;;;10.70;99.90;;;;;;5046482;28;20018;-85
2022/08/06 05:32:48;;;;;;;9.63;4.57;;;10.80;99.90;;;;;;5047624;28;20092;-85
2022/08/06 05:35:14;;;;;;;12.93;4.47;;;10.90;99.90;;;;;;5048079;28;20128;-85
2022/08/06 05:37:40;;;;;;;11.52;4.80;;;11.00;99.90;;;;;;5054559;23;20060;-85
2022/08/06 05:40:07;;;;;;;7.30;4.53;;;11.10;99.90;;;;;;5048510;28;20382;-85
2022/08/06 05:42:32;;;;;;;9.73;4.57;;;11.30;99.90;;;;;;5053484;28;20037;-85
2022/08/06 05:44:58;;;;;;;11.02;3.60;;;11.50;99.90;;;;;;5052911;28;20025;-85
2022/08/06 05:47:28;;;;;;;6.47;3.15;;;11.80;99.90;;;;;;5053015;28;20028;-86
2022/08/06 05:50:11;;;;;;;7.63;3.28;;;12.10;99.90;;;;;;5051456;28;20079;-86
2022/08/06 05:52:47;;;;;;;10.20;3.53;;;12.30;99.90;;;;;;5033412;28;20053;-86
2022/08/06 05:55:38;;;;;;;6.63;3.38;;;12.60;99.90;;;;;;5068740;28;20029;-86
2022/08/06 05:58:17;;;;;;;7.68;3.53;;;12.80;99.90;;;;;;5050352;28;20029;-86
2022/08/06 06:00:43;;;;;;;8.90;3.50;;;13.00;99.90;;;;;;5051914;28;20156;-86
2022/08/06 06:03:12;;;;;;;7.90;4.60;;;13.10;99.90;;;;;;5051622;28;20029;-85
2022/08/06 06:05:38;;;;;;;11.23;3.95;;;13.30;99.90;;;;;;5049311;28;20057;-86
2022/08/06 06:08:06;;;;;;;10.00;4.03;;;13.50;99.90;;;;;;5049981;28;20108;-86
2022/08/06 06:10:33;;;;;;;10.77;5.13;;;13.60;99.90;;;;;;5054682;28;20063;-86
2022/08/06 06:12:59;;;;;;;8.00;3.15;;;13.70;99.90;;;;;;5053473;28;20060;-86
2022/08/06 06:15:25;;;;;;;5.32;2.83;;;13.90;99.90;;;;;;5053213;28;20051;-86
2022/08/06 06:18:09;;;;;;;7.65;3.13;;;14.10;99.90;;;;;;5047363;28;20021;-86
2022/08/06 06:20:54;;;;;;;7.80;2.47;;;14.20;99.90;;;;;;5041240;28;20116;-86
2022/08/06 06:23:31;;;;;;;7.63;3.17;;;14.30;99.90;;;;;;5045306;28;20104;-86
2022/08/06 06:26:11;;;;;;;8.88;3.60;;;14.40;99.90;;;;;;5059146;28;20547;-86
2022/08/06 06:29:00;;;;;;;10.57;3.00;;;14.40;99.90;;;;;;5051982;28;20039;-86
2022/08/06 06:31:58;;;;;;;7.53;3.15;;;14.50;99.90;;;;;;5051986;28;20025;-85
2022/08/06 06:34:51;;;;;;;10.73;3.33;;;14.70;99.90;;;;;;5052620;28;20032;-86
2022/08/06 06:37:37;;;;;;;8.35;2.38;;;14.80;99.90;;;;;;5049495;28;20036;-86
2022/08/06 06:40:16;;;;;;;8.43;2.50;;;14.90;99.90;;;;;;5065724;28;20025;-85
2022/08/06 06:43:00;;;;;;;5.90;2.97;;;15.00;99.90;;;;;;5044620;28;20042;-86
2022/08/06 06:45:47;;;;;;;7.93;2.42;;;15.10;99.90;;;;;;5042632;28;20053;-85
2022/08/06 06:48:18;;;;;;;7.97;2.10;;;15.20;99.90;;;;;;5049644;28;20074;-86
2022/08/06 06:50:50;;;;;;;7.68;2.28;;;15.40;99.90;;;;;;5043705;28;20033;-85
2022/08/06 06:53:17;;;;;;;9.05;1.88;;;15.50;99.90;;;;;;5041873;28;20022;-87
2022/08/06 06:55:51;;;;;;;6.57;1.60;;;15.70;99.90;;;;;;5049978;28;20055;-86
2022/08/06 06:58:33;;;;;;;5.57;1.10;;;15.90;99.90;;;;;;5065305;28;20024;-87
2022/08/06 07:00:59;;;;;;;5.95;1.33;;;16.10;99.90;;;;;;5043698;28;20512;-87
2022/08/06 07:03:28;;;;;;;4.07;1.15;;;16.30;99.90;;;;;;5047479;28;20155;-87
2022/08/06 07:05:57;;;;;;;6.22;1.40;;;16.40;99.90;;;;;;5048130;28;20537;-86
2022/08/06 07:08:29;;;;;;;2.88;0.50;;;16.50;99.90;;;;;;5046980;28;20021;-87
2022/08/06 07:10:56;;;;;;;3.75;0.60;;;16.60;99.90;;;;;;5049144;28;20480;-87
2022/08/06 07:13:24;;;;;;;4.55;0.50;;;16.70;99.90;;;;;;5044697;28;20033;-88
2022/08/06 07:15:50;;;;;;;4.78;0.50;;;16.80;99.90;;;;;;5047120;28;20132;-87
2022/08/06 07:18:17;;;;;;;4.75;0.50;;;16.80;99.90;;;;;;5047166;28;20025;-88
2022/08/06 07:20:43;;;;;;;4.72;0.38;;;16.90;99.90;;;;;;5043418;28;20119;-88
2022/08/06 07:23:09;;;;;;;2.80;0.45;;;17.00;99.90;;;;;;5064812;28;20028;-88
2022/08/06 07:25:45;;;;;;;5.60;0.40;;;17.10;99.90;;;;;;5045622;28;20393;-88
2022/08/06 07:28:13;;;;;;;3.50;0.25;;;17.20;99.90;;;;;;5039435;28;20432;-87
2022/08/06 07:30:40;;;;;;;4.00;0.30;;;17.30;99.90;;;;;;5044473;28;20132;-85
2022/08/06 07:33:08;;;;;;;2.08;0.43;;;17.30;99.90;;;;;;5047312;28;20020;-86
2022/08/06 07:35:34;;;;;;;3.13;0.28;;;17.40;99.90;;;;;;5049865;28;20033;-85
2022/08/06 07:38:02;;;;;;;1.40;0.30;;;17.50;99.90;;;;;;5045820;28;20041;-85
2022/08/06 07:40:38;;;;;;;1.55;0.25;;;17.70;99.90;;;;;;5047495;28;20025;-86
2022/08/06 07:43:19;;;;;;;1.92;0.10;;;17.80;99.90;;;;;;5049750;28;20532;-84
2022/08/06 07:45:46;;;;;;;3.17;0.20;;;17.90;99.90;;;;;;5046815;28;20384;-84
2022/08/06 07:48:13;;;;;;;2.67;0.50;;;18.00;99.90;;;;;;5046401;28;20051;-85
2022/08/06 07:50:42;;;;;;;3.72;0.30;;;18.00;99.90;;;;;;5046245;28;20025;-85
2022/08/06 07:53:10;;;;;;;1.88;0.20;;;18.10;99.90;;;;;;5046188;28;20040;-85
2022/08/06 07:55:36;;;;;;;3.75;0.20;;;18.10;99.90;;;;;;5048747;28;20072;-85
2022/08/06 07:58:04;;;;;;;4.18;0.32;;;18.20;99.90;;;;;;5048165;28;20025;-86
2022/08/06 08:00:31;;;;;;;2.90;0.22;;;18.30;99.90;;;;;;5049257;28;20036;-85
2022/08/06 08:06:17;;;;;;;4.53;0.22;;;18.40;99.90;;;;;;5006367;28;20072;-85
2022/08/06 08:08:49;;;;;;;0.75;0.20;;;18.60;99.90;;;;;;5044638;28;20041;-85
2022/08/06 08:11:16;;;;;;;1.13;0.10;;;18.70;99.90;;;;;;5044655;28;20059;-84
2022/08/06 08:13:42;;;;;;;1.98;0.10;;;18.80;99.50;;;;;;5044153;28;20078;-84
2022/08/06 08:16:11;;;;;;;1.10;0.10;;;18.80;99.10;;;;;;5043382;28;20028;-83
2022/08/06 08:18:39;;;;;;;2.33;0.22;;;19.00;98.20;;;;;;5042393;28;20029;-84
2022/08/06 08:21:06;;;;;;;3.45;0.10;;;18.90;97.80;;;;;;5045911;28;20396;-84
2022/08/06 08:23:33;;;;;;;2.50;0.20;;;19.00;97.70;;;;;;5043947;28;20028;-84
2022/08/06 08:26:00;;;;;;;5.75;0.35;;;19.10;97.40;;;;;;5041843;28;20065;-84
2022/08/06 08:28:26;;;;;;;2.28;0.10;;;19.20;96.80;;;;;;5046744;28;20021;-84
2022/08/06 08:30:51;;;;;;;2.90;0.10;;;19.20;96.50;;;;;;5047439;28;20029;-84
2022/08/06 08:33:18;;;;;;;1.83;0.10;;;19.30;96.40;;;;;;5047211;28;20022;-85
2022/08/06 08:35:45;;;;;;;2.33;0.10;;;19.40;95.90;;;;;;5046477;28;20132;-83
2022/08/06 08:38:10;;;;;;;1.58;0.10;;;19.50;95.40;;;;;;5058900;28;20619;-85
2022/08/06 08:40:36;;;;;;;2.90;0.10;;;19.50;94.80;;;;;;5041731;28;20359;-85
2022/08/06 08:43:04;;;;;;;1.73;0.20;;;19.60;94.60;;;;;;5050541;28;20029;-84
2022/08/06 08:45:30;;;;;;;5.85;0.30;;;19.70;94.30;;;;;;5050639;28;20166;-84
2022/08/06 08:47:58;;;;;;;2.67;0.10;;;19.80;93.70;;;;;;5046955;28;20112;-85
2022/08/06 08:50:28;;;;;;;0.85;0.17;;;19.90;93.40;;;;;;5046530;28;20025;-85
2022/08/06 08:53:07;;;;;;;1.35;0.10;;;20.00;93.20;;;;;;5047184;28;20051;-84
2022/08/06 08:55:34;;;;;;;2.92;0.17;;;20.00;92.70;;;;;;5046064;28;20068;-84
2022/08/06 08:58:01;;;;;;;3.00;0.10;;;20.10;92.10;;;;;;5050133;28;20021;-87
2022/08/06 09:00:26;;;;;;;3.38;0.25;;;20.10;91.70;;;;;;5053595;28;20021;-86
2022/08/06 09:02:52;;;;;;;2.63;0.10;;;20.00;91.50;;;;;;5052339;28;20350;-86
2022/08/06 09:05:18;;;;;;;1.17;0.10;;;20.00;91.60;;;;;;5052742;28;20037;-87
2022/08/06 09:07:44;;;;;;;1.50;0.10;;;20.20;91.50;;;;;;5051735;28;20123;-87
2022/08/06 09:10:10;;;;;;;3.67;0.20;;;20.30;91.00;;;;;;5054850;28;20021;-86
2022/08/06 09:12:36;;;;;;;2.80;0.20;;;20.40;90.60;;;;;;5052295;28;20078;-86
2022/08/06 09:15:02;;;;;;;2.72;0.20;;;20.50;90.40;;;;;;5051910;28;20065;-87
2022/08/06 09:17:30;;;;;;;1.80;0.10;;;20.60;89.50;;;;;;5051872;28;20108;-87
2022/08/06 09:19:55;;;;;;;2.35;0.20;;;20.70;89.60;;;;;;5051844;28;20512;-87
2022/08/06 09:22:21;;;;;;;3.42;0.15;;;20.80;89.40;;;;;;5052521;28;20056;-87
2022/08/06 09:24:47;;;;;;;0.90;0.10;;;20.90;87.70;;;;;;5049677;28;20029;-87
2022/08/06 09:27:15;;;;;;;1.23;0.30;;;20.70;86.80;;;;;;5050488;28;20071;-87
2022/08/06 09:29:53;;;;;;;2.28;0.10;;;20.40;86.70;;;;;;5052847;28;20033;-86
2022/08/06 09:32:40;;;;;;;10.95;0.50;;;20.20;87.50;;;;;;5049318;28;20029;-87
2022/08/06 09:35:21;;;;;;;1.63;0.10;;;20.30;87.40;;;;;;5042672;28;20037;-86
2022/08/06 09:37:48;;;;;;;1.17;0.10;;;20.40;86.90;;;;;;5041852;28;20045;-86
2022/08/06 09:40:16;;;;;;;0.70;0.10;;;20.50;86.30;;;;;;5049824;28;20029;-86
2022/08/06 09:42:46;;;;;;;2.03;0.10;;;20.70;85.60;;;;;;5050940;28;20021;-86
2022/08/06 09:45:14;;;;;;;1.88;0.10;;;20.90;83.30;;;;;;5051322;28;20036;-87
2022/08/06 09:47:40;;;;;;;2.72;0.10;;;21.00;81.70;;;;;;5049921;28;20025;-87
2022/08/06 09:50:07;;;;;;;1.52;0.10;;;21.00;80.10;;;;;;5064639;28;20025;-87
2022/08/06 09:52:33;;;;;;;2.25;0.10;;;21.10;79.70;;;;;;5050087;28;20434;-90
2022/08/06 09:54:59;;;;;;;1.08;0.10;;;21.30;79.20;;;;;;5049939;28;20136;-87
2022/08/06 09:57:40;;;;;;;4.75;0.30;;;21.40;78.30;;;;;;5048239;28;20085;-87
2022/08/06 10:00:07;;;;;;;2.80;0.10;;;21.40;77.80;;;;;;5048452;28;20028;-87
2022/08/06 10:02:34;;;;;;;0.63;0.00;;;21.60;76.10;;;;;;5048006;28;20024;-87
2022/08/06 10:05:08;;;;;;;1.73;0.10;;;21.70;76.40;;;;;;5049757;28;20489;-88
2022/08/06 10:07:33;;;;;;;2.55;0.20;;;21.80;75.60;;;;;;5047171;28;20021;-88
2022/08/06 10:09:59;;;;;;;2.88;0.15;;;21.90;75.60;;;;;;5046525;28;20029;-89
2022/08/06 10:12:24;;;;;;;2.17;0.10;;;22.00;75.90;;;;;;5047563;28;20028;-88
2022/08/06 10:14:50;;;;;;;5.20;0.32;;;22.10;76.40;;;;;;5049485;28;20039;-88
2022/08/06 10:17:19;;;;;;;0.95;0.10;;;22.20;75.70;;;;;;5049455;28;20022;-88
2022/08/06 10:20:05;;;;;;;2.10;0.20;;;22.10;75.40;;;;;;5048730;28;20094;-88
2022/08/06 10:22:31;;;;;;;1.80;0.10;;;21.90;74.90;;;;;;5046751;28;20120;-87
2022/08/06 10:25:01;;;;;;;3.05;0.20;;;21.70;75.30;;;;;;5048653;28;20103;-88
2022/08/06 10:27:31;;;;;;;1.40;0.03;;;21.80;75.10;;;;;;5043110;28;20420;-87
2022/08/06 10:30:08;;;;;;;0.65;0.00;;;21.70;72.10;;;;;;5045137;28;20029;-88
2022/08/06 10:32:41;;;;;;;0.50;0.10;;;21.60;70.90;;;;;;5048362;28;20025;-87
2022/08/06 10:35:08;;;;;;;2.90;0.30;;;21.60;68.00;;;;;;5043195;28;20033;-87
2022/08/06 10:37:41;;;;;;;1.08;0.10;;;21.80;68.20;;;;;;5047730;28;20055;-87
2022/08/06 10:40:08;;;;;;;1.67;0.15;;;21.90;67.60;;;;;;5044371;28;20047;-87
2022/08/06 10:42:34;;;;;;;0.55;0.05;;;22.00;65.30;;;;;;5047315;28;20017;-87
2022/08/06 10:45:01;;;;;;;0.98;0.08;;;22.10;65.20;;;;;;5049169;28;20083;-86
2022/08/06 10:47:27;;;;;;;3.58;0.13;;;22.10;65.10;;;;;;5046834;28;20112;-86
2022/08/06 10:49:53;;;;;;;1.58;0.08;;;22.20;64.90;;;;;;5044421;28;20324;-86
2022/08/06 10:52:20;;;;;;;2.70;0.00;;;22.20;64.30;;;;;;5047939;28;20025;-86
2022/08/06 10:54:46;;;;;;;0.80;0.00;;;22.30;64.20;;;;;;5047831;28;20045;-87
2022/08/06 10:57:12;;;;;;;1.95;0.10;;;22.40;64.60;;;;;;5048776;28;20362;-86
2022/08/06 10:59:42;;;;;;;0.50;0.10;;;22.50;64.00;;;;;;5047843;28;20539;-87
2022/08/06 11:02:40;;;;;;;0.43;0.10;;;22.70;63.00;;;;;;5049011;28;20017;-86
2022/08/06 11:05:17;;;;;;;0.73;0.10;;;22.70;61.80;;;;;;5044552;28;20052;-86
2022/08/06 11:08:20;;;;;;;3.08;0.13;;;22.80;62.00;;;;;;5046566;28;20025;-86
2022/08/06 11:11:23;;;;;;;3.90;0.10;;;23.00;62.70;;;;;;5044383;28;20108;-87
2022/08/06 11:13:59;;;;;;;1.88;0.10;;;23.10;63.60;;;;;;5046429;28;20021;-86
2022/08/06 11:16:28;;;;;;;1.27;0.20;;;23.20;62.90;;;;;;5049515;28;20036;-86
2022/08/06 11:18:59;;;;;;;1.60;0.10;;;23.00;63.20;;;;;;5049248;28;20036;-87
2022/08/06 11:21:38;;;;;;;1.95;0.20;;;22.60;64.30;;;;;;5049901;28;20156;-86
2022/08/06 11:24:05;;;;;;;1.15;0.13;;;22.40;65.00;;;;;;5045960;28;20107;-86
2022/08/06 11:26:39;;;;;;;7.35;0.10;;;22.30;65.70;;;;;;5049570;28;20035;-86
2022/08/06 11:29:10;;;;;;;0.70;0.10;;;22.20;65.80;;;;;;5049992;28;20028;-86
2022/08/06 11:31:38;;;;;;;2.65;0.10;;;22.30;66.50;;;;;;5048818;28;20033;-86
2022/08/06 11:34:09;;;;;;;1.52;0.20;;;22.40;65.70;;;;;;5049660;28;20031;-87
2022/08/06 11:36:59;;;;;;;3.88;0.10;;;22.60;64.50;;;;;;5049516;28;20076;-85
2022/08/06 11:39:27;;;;;;;2.45;0.20;;;22.80;63.90;;;;;;5047954;28;20047;-88
2022/08/06 11:41:59;;;;;;;0.93;0.10;;;23.00;63.20;;;;;;5047529;28;20032;-87
2022/08/06 11:44:27;;;;;;;1.10;0.10;;;23.20;62.80;;;;;;5044687;28;20078;-86
2022/08/06 11:47:09;;;;;;;1.17;0.10;;;23.50;62.50;;;;;;5047393;28;20035;-88
2022/08/06 11:49:39;;;;;;;;;;;23.80;61.70;;;;;;5049243;28;20021;-87
2022/08/06 11:52:05;;;;;;;19.77;0.57;;;23.70;61.60;;;;;;5050633;28;20003;-88
2022/08/06 11:54:36;;;;;;;0.90;0.10;;;23.50;62.10;;;;;;5051328;28;20039;-89
2022/08/06 11:57:01;;;;;;;0.90;0.10;;;23.20;61.50;;;;;;5049126;28;20044;-89
2022/08/06 11:59:29;;;;;;;1.25;0.10;;;22.90;62.10;;;;;;5059991;28;20024;-86
2022/08/06 12:01:55;;;;;;;0.93;0.10;;;22.70;62.70;;;;;;5061454;28;20033;-83
2022/08/06 12:04:36;;;;;;;1.75;0.10;;;22.70;63.00;;;;;;5041010;28;20424;-82
2022/08/06 12:07:29;;;;;;;0.55;0.10;;;22.70;62.90;;;;;;5045116;28;20025;-83
2022/08/06 12:10:05;;;;;;;1.30;0.10;;;22.70;62.90;;;;;;5045426;28;20025;-82
2022/08/06 12:12:52;;;;;;;0.40;0.10;;;22.70;63.10;;;;;;5046435;28;20048;-83
2022/08/06 12:15:23;;;;;;;1.45;0.10;;;22.90;61.50;;;;;;5045343;28;20396;-82
2022/08/06 12:17:59;;;;;;;1.77;0.10;;;23.00;60.70;;;;;;5047676;28;20029;-82
2022/08/06 12:20:31;;;;;;;0.82;0.00;;;23.20;59.90;;;;;;5048649;28;20374;-82
2022/08/06 12:22:58;;;;;;;1.08;0.10;;;23.40;59.40;;;;;;5047012;28;20029;-82
2022/08/06 12:25:33;;;;;;;0.30;0.00;;;23.50;59.00;;;;;;5048298;28;20048;-82
2022/08/06 12:27:59;;;;;;;2.20;0.10;;;23.50;59.20;;;;;;5048145;28;20028;-82
2022/08/06 12:30:25;;;;;;;0.50;0.05;;;23.30;59.00;;;;;;5051652;28;20025;-82
2022/08/06 12:33:00;;;;;;;0.40;0.10;;;23.30;59.00;;;;;;5051301;28;20151;-82
2022/08/06 12:35:26;;;;;;;0.60;0.10;;;23.20;58.60;;;;;;5065629;28;20504;-82
2022/08/06 12:37:52;;;;;;;1.33;0.00;;;23.20;59.20;;;;;;5051272;28;20056;-82
2022/08/06 12:40:28;;;;;;;2.20;0.17;;;23.40;59.00;;;;;;5049348;28;20021;-82
2022/08/06 12:43:10;;;;;;;1.25;0.08;;;23.70;58.50;;;;;;5051304;28;20385;-82
2022/08/06 12:45:37;;;;;;;1.10;0.10;;;24.00;56.00;;;;;;5049551;28;20032;-82
2022/08/06 12:48:04;;;;;;;0.35;0.10;;;24.00;56.30;;;;;;5052305;28;20385;-82
2022/08/06 12:50:31;;;;;;;0.38;0.10;;;24.20;55.20;;;;;;5047555;28;20029;-84
2022/08/06 12:53:07;;;;;;;1.52;0.10;;;24.30;55.10;;;;;;5049822;28;20032;-83
2022/08/06 12:55:51;;;;;;;0.45;0.10;;;24.40;54.30;;;;;;5048842;28;20246;-83
2022/08/06 12:58:35;;;;;;;0.40;0.10;;;24.30;53.90;;;;;;5065167;28;20465;-83
2022/08/06 13:01:02;;;;;;;0.45;0.00;;;24.20;53.90;;;;;;5049409;28;20057;-84
2022/08/06 13:03:30;;;;;;;0.50;0.05;;;24.00;54.80;;;;;;5049960;28;20377;-84
2022/08/06 13:06:00;;;;;;;1.35;0.10;;;24.20;54.50;;;;;;5065243;28;20021;-87
2022/08/06 13:08:27;;;;;;;0.95;0.10;;;24.20;54.70;;;;;;5050985;28;20040;-87